createdAt,value
2023-02-23T00:03:06.271Z,1.09
2023-02-23T00:06:24.288Z,1.04
2023-02-23T00:09:41.182Z,1.01
2023-02-23T00:12:57.507Z,1.01
2023-02-23T00:16:17.689Z,0.94
2023-02-23T00:19:36.260Z,0.90
2023-02-23T00:22:52.274Z,0.85
2023-02-23T00:26:10.802Z,0.89
2023-02-23T00:29:29.922Z,0.88
2023-02-23T00:32:46.167Z,0.86
2023-02-23T00:36:03.557Z,0.77
2023-02-23T00:39:25.142Z,0.74
2023-02-23T00:42:42.654Z,0.65
2023-02-23T00:46:01.834Z,0.67
2023-02-23T00:49:20.125Z,0.62
2023-02-23T00:52:36.357Z,0.60
2023-02-23T00:55:52.440Z,0.61
2023-02-23T00:59:08.533Z,0.54
2023-02-23T01:02:24.593Z,0.58
2023-02-23T01:05:44.707Z,0.48
2023-02-23T01:09:03.645Z,0.51
2023-02-23T01:12:20.452Z,0.47
2023-02-23T01:15:37.662Z,0.43
2023-02-23T01:18:54.630Z,0.38
2023-02-23T01:22:12.741Z,0.28
2023-02-23T01:25:29.849Z,0.33
2023-02-23T01:28:47.635Z,0.28
2023-02-23T01:32:05.038Z,0.27
2023-02-23T01:35:22.397Z,0.26
2023-02-23T01:38:38.710Z,0.28
2023-02-23T01:41:56.826Z,0.23
2023-02-23T01:45:36.161Z,0.16
2023-02-23T01:48:52.341Z,0.17
2023-02-23T01:52:13.194Z,0.12
2023-02-23T01:55:31.442Z,0.10
2023-02-23T01:58:52.651Z,0.09
2023-02-23T02:02:09.399Z,0.09
2023-02-23T02:05:29.448Z,0.05
2023-02-23T02:08:48.738Z,-0.01
2023-02-23T02:12:06.712Z,-0.03
2023-02-23T02:15:25.459Z,-0.06
2023-02-23T02:18:48.736Z,-0.05
2023-02-23T02:22:27.728Z,-0.09
2023-02-23T02:26:12.175Z,-0.09
2023-02-23T02:30:14.607Z,-0.13
2023-02-23T02:34:06.320Z,-0.12
2023-02-23T02:37:54.782Z,-0.10
2023-02-23T02:41:16.843Z,-0.13
2023-02-23T02:44:39.606Z,-0.19
2023-02-23T02:48:02.169Z,-0.20
2023-02-23T02:51:28.709Z,-0.22
2023-02-23T02:54:48.501Z,-0.28
2023-02-23T02:58:08.661Z,-0.26
2023-02-23T03:01:40.623Z,-0.28
2023-02-23T03:05:10.932Z,-0.31
2023-02-23T03:08:48.790Z,-0.33
2023-02-23T03:12:26.713Z,-0.35
2023-02-23T03:16:07.962Z,-0.35
2023-02-23T03:19:44.547Z,-0.37
2023-02-23T03:23:22.256Z,-0.46
2023-02-23T03:26:57.376Z,-0.44
2023-02-23T03:30:38.950Z,-0.44
2023-02-23T03:34:14.183Z,-0.44
2023-02-23T03:37:48.461Z,-0.46
2023-02-23T03:41:21.151Z,-0.47
2023-02-23T03:44:56.160Z,-0.51
2023-02-23T03:48:31.155Z,-0.52
2023-02-23T03:52:05.520Z,-0.54
2023-02-23T03:55:40.288Z,-0.53
2023-02-23T03:59:15.969Z,-0.53
2023-02-23T04:02:48.403Z,-0.52
2023-02-23T04:06:20.753Z,-0.56
2023-02-23T04:09:51.225Z,-0.55
2023-02-23T04:13:16.098Z,-0.52
2023-02-23T04:16:28.373Z,-0.57
2023-02-23T04:19:45.382Z,-0.60
2023-02-23T04:23:01.934Z,-0.60
2023-02-23T04:26:18.069Z,-0.66
2023-02-23T04:29:34.258Z,-0.64
2023-02-23T04:32:50.921Z,-0.64
2023-02-23T04:36:07.115Z,-0.64
2023-02-23T04:39:22.976Z,-0.71
2023-02-23T04:42:39.059Z,-0.75
2023-02-23T04:45:57.326Z,-0.77
2023-02-23T04:49:14.703Z,-0.74
2023-02-23T04:52:32.154Z,-0.73
2023-02-23T04:55:48.162Z,-0.76
2023-02-23T04:59:04.526Z,-0.74
2023-02-23T05:02:20.665Z,-0.72
2023-02-23T05:05:37.727Z,-0.76
2023-02-23T05:08:53.746Z,-0.79
2023-02-23T05:12:10.539Z,-0.83
2023-02-23T05:15:27.218Z,-0.85
2023-02-23T05:18:43.516Z,-0.88
2023-02-23T05:21:59.573Z,-0.86
2023-02-23T05:25:17.613Z,-0.91
2023-02-23T05:28:34.230Z,-0.92
2023-02-23T05:31:50.761Z,-0.95
2023-02-23T05:35:06.817Z,-0.99
2023-02-23T05:38:23.132Z,-0.96
2023-02-23T05:41:39.634Z,-0.97
2023-02-23T05:44:56.384Z,-0.95
2023-02-23T05:48:15.229Z,-0.98
2023-02-23T05:51:35.099Z,-0.98
2023-02-23T05:54:51.294Z,-0.98
2023-02-23T05:58:07.986Z,-1.00
2023-02-23T06:01:25.241Z,-0.97
2023-02-23T06:04:42.047Z,-0.96
2023-02-23T06:07:58.201Z,-0.96
2023-02-23T06:11:14.669Z,-0.94
2023-02-23T06:14:31.116Z,-0.89
2023-02-23T06:17:47.343Z,-0.86
2023-02-23T06:21:06.742Z,-0.79
2023-02-23T06:24:22.922Z,-0.70
2023-02-23T06:27:39.215Z,-0.68
2023-02-23T06:30:55.958Z,-0.70
2023-02-23T06:34:12.910Z,-0.67
2023-02-23T06:37:29.068Z,-0.62
2023-02-23T06:40:45.425Z,-0.58
2023-02-23T06:44:01.787Z,-0.51
2023-02-23T06:47:18.242Z,-0.44
2023-02-23T06:50:34.768Z,-0.31
2023-02-23T06:53:51.237Z,-0.22
2023-02-23T06:57:10.509Z,-0.10
2023-02-23T07:00:31.346Z,0.03
2023-02-23T07:03:47.874Z,0.20
2023-02-23T07:07:04.510Z,0.46
2023-02-23T07:10:22.316Z,0.62
2023-02-23T07:13:38.475Z,0.83
2023-02-23T07:16:57.883Z,1.01
2023-02-23T07:20:17.300Z,1.36
2023-02-23T07:23:31.274Z,1.68
2023-02-23T07:26:48.026Z,1.89
2023-02-23T07:30:05.572Z,2.10
2023-02-23T07:33:22.088Z,2.23
2023-02-23T07:36:41.631Z,2.45
2023-02-23T07:40:05.613Z,2.59
2023-02-23T07:43:23.624Z,2.74
2023-02-23T07:46:40.214Z,2.96
2023-02-23T07:49:56.422Z,3.06
2023-02-23T07:53:12.785Z,3.07
2023-02-23T07:56:28.999Z,3.11
2023-02-23T07:59:45.981Z,3.15
2023-02-23T08:03:02.431Z,3.06
2023-02-23T08:06:18.759Z,2.98
2023-02-23T08:09:36.492Z,3.03
2023-02-23T08:12:53.210Z,2.81
2023-02-23T08:16:10.458Z,2.86
2023-02-23T08:19:28.466Z,2.81
2023-02-23T08:22:49.827Z,2.78
2023-02-23T08:26:05.223Z,2.87
2023-02-23T08:29:22.114Z,2.88
2023-02-23T08:32:40.967Z,2.87
2023-02-23T08:35:58.484Z,2.88
2023-02-23T08:39:15.062Z,3.02
2023-02-23T08:42:31.146Z,3.17
2023-02-23T08:45:48.542Z,3.16
2023-02-23T08:49:05.464Z,3.52
2023-02-23T08:52:21.712Z,3.63
2023-02-23T08:55:37.927Z,3.79
2023-02-23T08:58:58.128Z,3.92
2023-02-23T09:02:15.499Z,3.89
2023-02-23T09:05:32.037Z,3.84
2023-02-23T09:08:48.659Z,3.85
2023-02-23T09:12:04.858Z,3.96
2023-02-23T09:15:23.951Z,4.10
2023-02-23T09:18:40.848Z,4.04
2023-02-23T09:22:00.241Z,4.04
2023-02-23T09:25:21.353Z,4.25
2023-02-23T09:28:59.280Z,4.33
2023-02-23T09:32:30.313Z,4.39
2023-02-23T09:36:09.156Z,4.34
2023-02-23T09:39:39.149Z,4.44
2023-02-23T09:43:05.792Z,4.49
2023-02-23T09:46:29.558Z,4.62
2023-02-23T09:49:50.618Z,4.74
2023-02-23T09:53:10.714Z,4.86
2023-02-23T09:56:33.875Z,4.99
2023-02-23T09:59:50.919Z,5.16
2023-02-23T10:03:24.696Z,5.24
2023-02-23T10:06:41.853Z,5.25
2023-02-23T10:10:19.361Z,5.27
2023-02-23T10:13:44.700Z,5.22
2023-02-23T10:17:13.217Z,5.46
2023-02-23T10:20:36.053Z,5.46
2023-02-23T10:23:56.780Z,5.56
2023-02-23T10:27:20.710Z,5.72
2023-02-23T10:30:39.901Z,5.87
2023-02-23T10:33:54.616Z,5.87
2023-02-23T10:37:14.816Z,5.95
2023-02-23T10:40:34.087Z,6.08
2023-02-23T10:43:48.418Z,6.11
2023-02-23T10:47:12.148Z,6.25
2023-02-23T10:50:34.664Z,6.32
2023-02-23T10:53:53.687Z,6.22
2023-02-23T10:57:13.574Z,6.40
2023-02-23T11:00:41.847Z,6.17
2023-02-23T11:04:05.952Z,6.30
2023-02-23T11:07:23.211Z,6.53
2023-02-23T11:10:39.849Z,6.63
2023-02-23T11:13:58.292Z,6.75
2023-02-23T11:17:18.885Z,6.76
2023-02-23T11:20:42.597Z,6.79
2023-02-23T11:24:03.662Z,6.83
2023-02-23T11:27:28.753Z,6.89
2023-02-23T11:30:49.213Z,7.02
2023-02-23T11:34:09.026Z,7.09
2023-02-23T11:37:43.182Z,7.21
2023-02-23T11:41:25.260Z,7.27
2023-02-23T11:44:41.704Z,7.30
2023-02-23T11:48:02.945Z,7.39
2023-02-23T11:51:29.418Z,7.45
2023-02-23T11:54:46.171Z,7.46
2023-02-23T11:58:14.557Z,7.45
2023-02-23T12:01:48.084Z,7.48
2023-02-23T12:05:14.811Z,7.52
2023-02-23T12:08:45.284Z,7.46
2023-02-23T12:12:08.641Z,7.53
2023-02-23T12:15:37.698Z,7.50
2023-02-23T12:18:59.948Z,7.57
2023-02-23T12:22:27.837Z,7.57
2023-02-23T12:25:51.140Z,7.61
2023-02-23T12:29:11.600Z,7.61
2023-02-23T12:32:34.095Z,7.57
2023-02-23T12:35:59.054Z,7.61
2023-02-23T12:39:22.822Z,7.60
2023-02-23T12:42:53.079Z,7.65
2023-02-23T12:46:16.609Z,7.70
2023-02-23T12:49:41.440Z,7.71
2023-02-23T12:53:17.398Z,7.77
2023-02-23T12:56:56.813Z,7.77
2023-02-23T13:00:52.328Z,7.81
2023-02-23T13:04:51.885Z,7.82
2023-02-23T13:08:20.431Z,7.88
2023-02-23T13:11:55.087Z,7.85
2023-02-23T13:15:24.617Z,7.91
2023-02-23T13:18:49.557Z,7.93
2023-02-23T13:22:12.158Z,7.99
2023-02-23T13:25:43.299Z,8.01
2023-02-23T13:29:04.693Z,8.03
2023-02-23T13:32:24.922Z,8.05
2023-02-23T13:35:45.256Z,8.07
2023-02-23T13:39:46.943Z,8.10
2023-02-23T13:43:16.526Z,8.14
2023-02-23T13:46:42.639Z,8.19
2023-02-23T13:50:07.730Z,8.19
2023-02-23T13:53:47.656Z,8.23
2023-02-23T13:57:08.005Z,8.25
2023-02-23T14:00:31.162Z,8.26
2023-02-23T14:04:01.923Z,8.29
2023-02-23T14:07:29.683Z,8.29
2023-02-23T14:10:53.284Z,8.28
2023-02-23T14:14:11.711Z,8.25
2023-02-23T14:18:03.155Z,8.24
2023-02-23T14:21:34.134Z,8.23
2023-02-23T14:24:50.832Z,8.23
2023-02-23T14:28:11.994Z,8.24
2023-02-23T14:31:30.491Z,8.25
2023-02-23T14:35:01.200Z,8.25
2023-02-23T14:38:47.585Z,8.25
2023-02-23T14:42:01.263Z,8.26
2023-02-23T14:45:30.822Z,8.28
2023-02-23T14:48:51.170Z,8.27
2023-02-23T14:52:15.010Z,8.25
2023-02-23T14:55:36.107Z,8.25
2023-02-23T14:58:56.890Z,8.25
2023-02-23T15:02:19.553Z,8.24
2023-02-23T15:05:38.960Z,8.26
2023-02-23T15:08:55.640Z,8.24
2023-02-23T15:12:26.784Z,8.23
2023-02-23T15:15:45.516Z,8.21
2023-02-23T15:19:03.582Z,8.20
2023-02-23T15:22:30.918Z,8.20
2023-02-23T15:25:50.826Z,8.19
2023-02-23T15:29:14.241Z,8.17
2023-02-23T15:32:33.101Z,8.14
2023-02-23T15:35:54.319Z,8.11
2023-02-23T15:39:14.304Z,8.10
2023-02-23T15:42:36.048Z,8.07
2023-02-23T15:45:56.978Z,8.06
2023-02-23T15:49:17.651Z,8.04
2023-02-23T15:52:36.874Z,8.02
2023-02-23T15:55:56.026Z,8.00
2023-02-23T15:59:20.586Z,7.97
2023-02-23T16:02:38.881Z,7.96
2023-02-23T16:06:07.340Z,7.93
2023-02-23T16:09:36.764Z,7.91
2023-02-23T16:12:58.266Z,7.89
2023-02-23T16:16:19.873Z,7.87
2023-02-23T16:19:40.491Z,7.85
2023-02-23T16:22:59.006Z,7.84
2023-02-23T16:26:24.632Z,7.80
2023-02-23T16:29:47.333Z,7.74
2023-02-23T16:33:23.593Z,7.73
2023-02-23T16:36:48.292Z,7.70
2023-02-23T16:40:09.014Z,7.67
2023-02-23T16:43:25.806Z,7.62
2023-02-23T16:47:00.273Z,7.60
2023-02-23T16:50:29.251Z,7.58
2023-02-23T16:53:48.372Z,7.57
2023-02-23T16:57:09.203Z,7.55
2023-02-23T17:00:29.895Z,7.55
2023-02-23T17:03:52.764Z,7.50
2023-02-23T17:07:04.471Z,7.29
2023-02-23T17:10:30.168Z,7.17
2023-02-23T17:13:47.004Z,7.05
2023-02-23T17:17:06.795Z,6.88
2023-02-23T17:20:23.687Z,6.75
2023-02-23T17:23:49.123Z,6.67
2023-02-23T17:27:05.455Z,6.60
2023-02-23T17:30:24.483Z,6.58
2023-02-23T17:33:42.295Z,6.58
2023-02-23T17:37:01.177Z,6.57
2023-02-23T17:40:26.918Z,6.57
2023-02-23T17:43:44.046Z,6.48
2023-02-23T17:47:00.663Z,6.37
2023-02-23T17:50:20.759Z,6.17
2023-02-23T17:53:38.425Z,6.06
2023-02-23T17:56:54.800Z,6.11
2023-02-23T18:00:13.646Z,6.08
2023-02-23T18:03:33.628Z,6.08
2023-02-23T18:06:52.102Z,6.07
2023-02-23T18:10:09.910Z,5.99
2023-02-23T18:13:27.382Z,5.91
2023-02-23T18:16:43.977Z,5.87
2023-02-23T18:20:00.474Z,5.83
2023-02-23T18:23:19.773Z,5.85
2023-02-23T18:26:41.672Z,5.82
2023-02-23T18:30:01.283Z,5.83
2023-02-23T18:33:21.810Z,5.75
2023-02-23T18:36:41.325Z,5.64
2023-02-23T18:40:03.137Z,5.58
2023-02-23T18:43:19.661Z,5.50
2023-02-23T18:46:36.949Z,5.42
2023-02-23T18:49:54.127Z,5.44
2023-02-23T18:53:18.747Z,5.42
2023-02-23T18:56:41.503Z,5.42
2023-02-23T18:59:55.965Z,5.40
2023-02-23T19:03:13.484Z,5.39
2023-02-23T19:06:32.636Z,5.43
2023-02-23T19:09:53.085Z,5.48
2023-02-23T19:13:09.803Z,5.50
2023-02-23T19:16:27.070Z,5.51
2023-02-23T19:19:48.497Z,5.49
2023-02-23T19:23:09.055Z,5.40
2023-02-23T19:26:33.273Z,5.26
2023-02-23T19:29:50.786Z,5.28
2023-02-23T19:33:07.731Z,5.35
2023-02-23T19:36:30.066Z,5.43
2023-02-23T19:39:47.170Z,5.40
2023-02-23T19:43:03.507Z,5.35
2023-02-23T19:46:24.958Z,5.30
2023-02-23T19:49:41.905Z,5.28
2023-02-23T19:52:58.684Z,5.28
2023-02-23T19:56:18.944Z,5.24
2023-02-23T19:59:35.370Z,5.21
2023-02-23T20:02:55.494Z,5.15
2023-02-23T20:06:18.325Z,5.10
2023-02-23T20:09:36.096Z,5.06
2023-02-23T20:12:52.650Z,5.10
2023-02-23T20:16:15.130Z,5.11
2023-02-23T20:19:33.381Z,5.09
2023-02-23T20:22:51.739Z,4.99
2023-02-23T20:26:08.731Z,4.92
2023-02-23T20:29:27.699Z,4.91
2023-02-23T20:32:47.382Z,4.95
2023-02-23T20:36:03.788Z,4.95
2023-02-23T20:39:23.378Z,4.96
2023-02-23T20:42:37.308Z,4.95
2023-02-23T20:45:53.599Z,4.93
2023-02-23T20:49:11.736Z,4.91
2023-02-23T20:52:28.404Z,4.96
2023-02-23T20:55:45.214Z,4.97
2023-02-23T20:59:02.319Z,4.98
2023-02-23T21:02:20.720Z,4.97
2023-02-23T21:05:42.562Z,4.74
2023-02-23T21:09:02.733Z,4.78
2023-02-23T21:12:20.281Z,4.72
2023-02-23T21:15:40.569Z,4.64
2023-02-23T21:19:01.996Z,4.61
2023-02-23T21:22:21.472Z,4.63
2023-02-23T21:25:41.047Z,4.61
2023-02-23T21:28:57.223Z,4.54
2023-02-23T21:32:17.551Z,4.59
2023-02-23T21:35:37.281Z,4.48
2023-02-23T21:38:54.111Z,4.55
2023-02-23T21:42:11.152Z,4.53
2023-02-23T21:45:28.576Z,4.49
2023-02-23T21:48:45.090Z,4.37
2023-02-23T21:52:01.216Z,4.40
2023-02-23T21:55:21.544Z,4.40
2023-02-23T21:58:39.611Z,4.42
2023-02-23T22:01:55.863Z,4.42
2023-02-23T22:05:13.235Z,4.35
2023-02-23T22:08:29.705Z,4.45
2023-02-23T22:11:48.337Z,4.52
2023-02-23T22:15:05.550Z,4.54
2023-02-23T22:18:22.735Z,4.50
2023-02-23T22:21:48.677Z,4.45
2023-02-23T22:25:04.890Z,4.53
2023-02-23T22:28:21.043Z,4.58
2023-02-23T22:31:37.922Z,4.59
2023-02-23T22:34:54.320Z,4.59
2023-02-23T22:38:10.483Z,4.48
2023-02-23T22:41:28.872Z,4.55
2023-02-23T22:44:47.189Z,4.44
2023-02-23T22:48:05.181Z,4.41
2023-02-23T22:51:25.128Z,4.45
2023-02-23T22:54:43.910Z,4.82
2023-02-23T22:58:00.613Z,4.96
2023-02-23T23:01:18.914Z,5.19
2023-02-23T23:04:35.682Z,5.37
2023-02-23T23:07:52.545Z,5.62
2023-02-23T23:11:14.669Z,5.68
2023-02-23T23:14:33.378Z,5.81
2023-02-23T23:17:50.849Z,5.99
2023-02-23T23:21:14.084Z,6.09
2023-02-23T23:24:31.579Z,6.21
2023-02-23T23:27:52.132Z,6.28
2023-02-23T23:31:12.111Z,6.28
2023-02-23T23:34:28.582Z,6.18
2023-02-23T23:37:45.184Z,5.92
2023-02-23T23:41:03.101Z,5.70
2023-02-23T23:44:19.739Z,5.63
2023-02-23T23:47:36.645Z,5.53
2023-02-23T23:50:52.863Z,5.46
2023-02-23T23:54:12.449Z,5.43
2023-02-23T23:57:28.961Z,5.40
